sensor_id;sensor_type;location;lat;lon;timestamp;P1;durP1;ratioP1;P2;durP2;ratioP2
61739;SDS011;47645;45.288;12.038;2022-12-07T00:00:45;52.7;;;25.0;;
61739;SDS011;47645;45.288;12.038;2022-12-07T00:10:45;47.4;;;23.1;;
61739;SDS011;47645;45.288;12.038;2022-12-07T00:20:46;44.6;;;22.2;;
61739;SDS011;47645;45.288;12.038;2022-12-07T00:30:46;50.9;;;22.2;;
61739;SDS011;47645;45.288;12.038;2022-12-07T00:40:53;47.7;;;23.1;;
61739;SDS011;47645;45.288;12.038;2022-12-07T00:50:47;40.2;;;19.5;;
61739;SDS011;47645;45.288;12.038;2022-12-07T01:00:48;45.7;;;22.7;;
61739;SDS011;47645;45.288;12.038;2022-12-07T01:10:48;42.8;;;21.0;;
61739;SDS011;47645;45.288;12.038;2022-12-07T01:20:56;42.2;;;19.2;;
61739;SDS011;47645;45.288;12.038;2022-12-07T01:30:57;39.4;;;18.8;;
61739;SDS011;47645;45.288;12.038;2022-12-07T01:40:53;43.7;;;20.4;;
61739;SDS011;47645;45.288;12.038;2022-12-07T01:50:50;38.1;;;18.6;;
61739;SDS011;47645;45.288;12.038;2022-12-07T02:00:50;33.2;;;18.3;;
61739;SDS011;47645;45.288;12.038;2022-12-07T02:10:51;31.4;;;16.8;;
61739;SDS011;47645;45.288;12.038;2022-12-07T02:20:53;28.5;;;16.4;;
61739;SDS011;47645;45.288;12.038;2022-12-07T02:30:52;29.0;;;15.4;;
61739;SDS011;47645;45.288;12.038;2022-12-07T02:40:53;27.0;;;16.1;;
61739;SDS011;47645;45.288;12.038;2022-12-07T02:50:53;23.2;;;14.1;;
61739;SDS011;47645;45.288;12.038;2022-12-07T03:00:56;26.0;;;14.7;;
61739;SDS011;47645;45.288;12.038;2022-12-07T03:10:55;27.4;;;15.2;;
61739;SDS011;47645;45.288;12.038;2022-12-07T03:20:55;22.4;;;13.5;;
61739;SDS011;47645;45.288;12.038;2022-12-07T03:30:56;24.2;;;13.9;;
61739;SDS011;47645;45.288;12.038;2022-12-07T03:40:57;24.7;;;15.0;;
61739;SDS011;47645;45.288;12.038;2022-12-07T03:50:59;21.8;;;13.3;;
61739;SDS011;47645;45.288;12.038;2022-12-07T04:00:56;23.9;;;13.5;;
61739;SDS011;47645;45.288;12.038;2022-12-07T04:10:56;25.1;;;14.9;;
61739;SDS011;47645;45.288;12.038;2022-12-07T04:20:57;25.0;;;14.0;;
61739;SDS011;47645;45.288;12.038;2022-12-07T04:30:57;29.7;;;16.3;;
61739;SDS011;47645;45.288;12.038;2022-12-07T04:40:58;36.8;;;18.2;;
61739;SDS011;47645;45.288;12.038;2022-12-07T04:50:58;31.2;;;16.6;;
61739;SDS011;47645;45.288;12.038;2022-12-07T05:00:59;28.7;;;15.9;;
61739;SDS011;47645;45.288;12.038;2022-12-07T05:10:59;28.2;;;15.7;;
61739;SDS011;47645;45.288;12.038;2022-12-07T05:21:00;29.5;;;15.2;;
61739;SDS011;47645;45.288;12.038;2022-12-07T05:31:00;27.0;;;14.7;;
61739;SDS011;47645;45.288;12.038;2022-12-07T05:41:02;27.5;;;14.7;;
61739;SDS011;47645;45.288;12.038;2022-12-07T05:51:01;27.2;;;13.8;;
61739;SDS011;47645;45.288;12.038;2022-12-07T06:01:02;24.2;;;14.7;;
61739;SDS011;47645;45.288;12.038;2022-12-07T06:21:03;20.9;;;12.0;;
61739;SDS011;47645;45.288;12.038;2022-12-07T06:31:03;16.9;;;9.4;;
61739;SDS011;47645;45.288;12.038;2022-12-07T06:41:03;18.0;;;10.6;;
61739;SDS011;47645;45.288;12.038;2022-12-07T06:51:04;17.7;;;10.2;;
61739;SDS011;47645;45.288;12.038;2022-12-07T07:01:08;18.4;;;11.5;;
61739;SDS011;47645;45.288;12.038;2022-12-07T07:11:04;20.9;;;11.1;;
61739;SDS011;47645;45.288;12.038;2022-12-07T07:21:05;20.3;;;11.6;;
61739;SDS011;47645;45.288;12.038;2022-12-07T07:31:05;15.9;;;9.8;;
61739;SDS011;47645;45.288;12.038;2022-12-07T07:41:05;19.8;;;13.1;;
61739;SDS011;47645;45.288;12.038;2022-12-07T07:51:07;21.5;;;11.8;;
61739;SDS011;47645;45.288;12.038;2022-12-07T08:01:06;22.6;;;10.2;;
61739;SDS011;47645;45.288;12.038;2022-12-07T08:11:07;19.2;;;10.6;;
61739;SDS011;47645;45.288;12.038;2022-12-07T08:21:09;15.2;;;9.7;;
61739;SDS011;47645;45.288;12.038;2022-12-07T08:31:08;17.3;;;9.4;;
61739;SDS011;47645;45.288;12.038;2022-12-07T08:41:08;14.3;;;8.9;;
61739;SDS011;47645;45.288;12.038;2022-12-07T08:51:08;14.7;;;8.5;;
61739;SDS011;47645;45.288;12.038;2022-12-07T09:01:08;13.0;;;7.8;;
61739;SDS011;47645;45.288;12.038;2022-12-07T09:11:09;12.2;;;7.3;;
61739;SDS011;47645;45.288;12.038;2022-12-07T09:21:09;12.3;;;7.6;;
61739;SDS011;47645;45.288;12.038;2022-12-07T09:31:10;12.7;;;7.5;;
61739;SDS011;47645;45.288;12.038;2022-12-07T09:41:10;13.8;;;7.5;;
61739;SDS011;47645;45.288;12.038;2022-12-07T09:51:13;9.9;;;5.9;;
61739;SDS011;47645;45.288;12.038;2022-12-07T10:01:12;9.3;;;6.8;;
61739;SDS011;47645;45.288;12.038;2022-12-07T10:11:12;8.4;;;5.4;;
61739;SDS011;47645;45.288;12.038;2022-12-07T10:21:13;8.8;;;5.2;;
61739;SDS011;47645;45.288;12.038;2022-12-07T10:31:15;7.0;;;4.8;;
61739;SDS011;47645;45.288;12.038;2022-12-07T10:41:13;6.0;;;4.2;;
61739;SDS011;47645;45.288;12.038;2022-12-07T10:51:15;5.3;;;3.2;;
61739;SDS011;47645;45.288;12.038;2022-12-07T11:01:17;4.7;;;3.5;;
61739;SDS011;47645;45.288;12.038;2022-12-07T11:11:16;5.2;;;3.3;;
61739;SDS011;47645;45.288;12.038;2022-12-07T11:21:17;6.6;;;2.9;;
61739;SDS011;47645;45.288;12.038;2022-12-07T11:31:17;6.1;;;3.3;;
61739;SDS011;47645;45.288;12.038;2022-12-07T11:41:16;6.1;;;3.3;;
61739;SDS011;47645;45.288;12.038;2022-12-07T11:51:18;6.5;;;3.9;;
61739;SDS011;47645;45.288;12.038;2022-12-07T12:01:25;5.1;;;3.8;;
61739;SDS011;47645;45.288;12.038;2022-12-07T12:11:24;6.0;;;3.8;;
61739;SDS011;47645;45.288;12.038;2022-12-07T12:21:19;7.6;;;4.1;;
61739;SDS011;47645;45.288;12.038;2022-12-07T12:31:31;5.9;;;4.2;;
61739;SDS011;47645;45.288;12.038;2022-12-07T12:42:42;7.7;;;4.3;;
61739;SDS011;47645;45.288;12.038;2022-12-07T12:51:37;7.4;;;4.9;;
61739;SDS011;47645;45.288;12.038;2022-12-07T13:01:35;6.8;;;4.8;;
61739;SDS011;47645;45.288;12.038;2022-12-07T13:11:25;6.1;;;4.1;;
61739;SDS011;47645;45.288;12.038;2022-12-07T13:21:56;7.2;;;4.9;;
61739;SDS011;47645;45.288;12.038;2022-12-07T13:31:33;21.6;;;12.8;;
61739;SDS011;47645;45.288;12.038;2022-12-07T13:41:25;17.1;;;9.7;;
61739;SDS011;47645;45.288;12.038;2022-12-07T13:51:25;15.2;;;8.6;;
61739;SDS011;47645;45.288;12.038;2022-12-07T14:01:25;19.4;;;12.3;;
61739;SDS011;47645;45.288;12.038;2022-12-07T14:11:28;28.5;;;14.0;;
61739;SDS011;47645;45.288;12.038;2022-12-07T14:21:27;24.6;;;14.6;;
61739;SDS011;47645;45.288;12.038;2022-12-07T14:31:27;23.4;;;13.9;;
61739;SDS011;47645;45.288;12.038;2022-12-07T14:42:00;17.9;;;10.4;;
61739;SDS011;47645;45.288;12.038;2022-12-07T14:51:36;25.3;;;14.1;;
61739;SDS011;47645;45.288;12.038;2022-12-07T15:01:29;23.0;;;12.3;;
61739;SDS011;47645;45.288;12.038;2022-12-07T15:11:30;24.0;;;13.9;;
61739;SDS011;47645;45.288;12.038;2022-12-07T15:21:30;25.7;;;13.9;;
61739;SDS011;47645;45.288;12.038;2022-12-07T15:31:31;26.6;;;15.1;;
61739;SDS011;47645;45.288;12.038;2022-12-07T15:41:31;23.2;;;13.9;;
61739;SDS011;47645;45.288;12.038;2022-12-07T15:51:32;23.4;;;13.5;;
61739;SDS011;47645;45.288;12.038;2022-12-07T16:01:32;28.0;;;14.1;;
61739;SDS011;47645;45.288;12.038;2022-12-07T16:11:33;27.6;;;14.5;;
61739;SDS011;47645;45.288;12.038;2022-12-07T16:21:33;22.5;;;12.6;;
61739;SDS011;47645;45.288;12.038;2022-12-07T16:31:34;31.1;;;15.6;;
61739;SDS011;47645;45.288;12.038;2022-12-07T16:41:34;29.5;;;15.5;;
61739;SDS011;47645;45.288;12.038;2022-12-07T16:51:37;24.3;;;13.5;;
61739;SDS011;47645;45.288;12.038;2022-12-07T17:01:36;26.4;;;13.9;;
61739;SDS011;47645;45.288;12.038;2022-12-07T17:11:36;19.8;;;12.0;;
61739;SDS011;47645;45.288;12.038;2022-12-07T17:21:36;31.0;;;17.3;;
61739;SDS011;47645;45.288;12.038;2022-12-07T17:31:37;21.2;;;11.5;;
61739;SDS011;47645;45.288;12.038;2022-12-07T17:42:47;28.3;;;16.1;;
61739;SDS011;47645;45.288;12.038;2022-12-07T18:01:38;44.8;;;22.2;;
61739;SDS011;47645;45.288;12.038;2022-12-07T18:11:38;25.9;;;14.5;;
61739;SDS011;47645;45.288;12.038;2022-12-07T18:21:39;39.4;;;20.7;;
61739;SDS011;47645;45.288;12.038;2022-12-07T18:31:39;40.9;;;21.8;;
61739;SDS011;47645;45.288;12.038;2022-12-07T18:41:40;42.7;;;21.2;;
61739;SDS011;47645;45.288;12.038;2022-12-07T18:51:40;41.7;;;20.1;;
61739;SDS011;47645;45.288;12.038;2022-12-07T19:01:42;47.5;;;21.7;;
61739;SDS011;47645;45.288;12.038;2022-12-07T19:12:02;29.9;;;16.4;;
61739;SDS011;47645;45.288;12.038;2022-12-07T19:21:41;48.3;;;25.0;;
61739;SDS011;47645;45.288;12.038;2022-12-07T19:31:42;44.3;;;25.9;;
61739;SDS011;47645;45.288;12.038;2022-12-07T19:41:43;51.2;;;26.8;;
61739;SDS011;47645;45.288;12.038;2022-12-07T19:51:47;43.8;;;24.5;;
61739;SDS011;47645;45.288;12.038;2022-12-07T20:01:44;41.9;;;24.7;;
61739;SDS011;47645;45.288;12.038;2022-12-07T20:21:44;41.0;;;22.2;;
61739;SDS011;47645;45.288;12.038;2022-12-07T20:31:45;42.9;;;22.8;;
61739;SDS011;47645;45.288;12.038;2022-12-07T20:42:50;34.0;;;20.2;;
61739;SDS011;47645;45.288;12.038;2022-12-07T20:51:45;27.4;;;17.0;;
61739;SDS011;47645;45.288;12.038;2022-12-07T21:01:46;32.0;;;17.5;;
61739;SDS011;47645;45.288;12.038;2022-12-07T21:11:46;27.9;;;16.5;;
61739;SDS011;47645;45.288;12.038;2022-12-07T21:21:46;31.2;;;16.8;;
61739;SDS011;47645;45.288;12.038;2022-12-07T21:31:47;29.0;;;16.5;;
61739;SDS011;47645;45.288;12.038;2022-12-07T21:41:47;25.1;;;15.4;;
61739;SDS011;47645;45.288;12.038;2022-12-07T21:51:48;33.1;;;17.0;;
61739;SDS011;47645;45.288;12.038;2022-12-07T22:01:49;32.3;;;19.1;;
61739;SDS011;47645;45.288;12.038;2022-12-07T22:11:49;30.2;;;18.1;;
61739;SDS011;47645;45.288;12.038;2022-12-07T22:21:49;25.9;;;16.7;;
61739;SDS011;47645;45.288;12.038;2022-12-07T22:31:50;25.2;;;15.3;;
61739;SDS011;47645;45.288;12.038;2022-12-07T22:41:50;26.3;;;15.6;;
61739;SDS011;47645;45.288;12.038;2022-12-07T22:51:51;31.4;;;15.8;;
61739;SDS011;47645;45.288;12.038;2022-12-07T23:01:51;24.1;;;14.7;;
61739;SDS011;47645;45.288;12.038;2022-12-07T23:21:52;20.5;;;13.7;;
61739;SDS011;47645;45.288;12.038;2022-12-07T23:31:53;21.8;;;13.5;;
61739;SDS011;47645;45.288;12.038;2022-12-07T23:41:53;20.4;;;13.7;;
61739;SDS011;47645;45.288;12.038;2022-12-07T23:51:54;21.9;;;13.3;;
